Time;durP1;ratioP1;P1;durP2;ratioP2;P2;SDS_P1;SDS_P2;PMS_P1;PMS_P2;Temp;Humidity;BMP_temperature;BMP_pressure;BME280_temperature;BME280_humidity;BME280_pressure;Samples;Min_cycle;Max_cycle;Signal;HPM_P1;HPM_P2
2022/07/22 00:00:14;;;;;;;5.90;5.50;;;;;25.20;100973.00;;;;2079456;28;20213;-56
2022/07/22 00:01:15;;;;;;;5.77;5.37;;;;;25.20;100977.00;;;;2078868;28;20206;-56
2022/07/22 00:02:15;;;;;;;6.30;5.50;;;;;25.30;100968.00;;;;2078947;28;20704;-55
2022/07/22 00:03:16;;;;;;;5.13;4.73;;;;;25.30;100977.00;;;;2084871;28;20209;-55
2022/07/22 00:04:16;;;;;;;5.70;5.20;;;;;25.20;100973.00;;;;2082892;28;20224;-56
2022/07/22 00:05:16;;;;;;;4.90;4.40;;;;;25.20;100976.00;;;;2080472;28;20256;-55
2022/07/22 00:06:17;;;;;;;5.27;4.70;;;;;25.20;100974.00;;;;2080419;28;20312;-56
2022/07/22 00:07:17;;;;;;;5.87;5.40;;;;;25.20;100979.00;;;;2079792;28;20278;-56
2022/07/22 00:08:17;;;;;;;5.03;4.50;;;;;25.20;100977.00;;;;2082031;28;20239;-55
2022/07/22 00:09:18;;;;;;;5.13;4.63;;;;;25.30;100984.00;;;;2082174;28;20213;-56
2022/07/22 00:10:18;;;;;;;4.27;3.97;;;;;25.20;100983.00;;;;2079935;28;20237;-58
2022/07/22 00:11:18;;;;;;;4.30;4.00;;;;;25.20;100977.00;;;;2079871;28;20221;-56
2022/07/22 00:12:19;;;;;;;6.13;4.60;;;;;25.20;100980.00;;;;2082277;28;20212;-56
2022/07/22 00:13:19;;;;;;;4.53;4.23;;;;;25.20;100981.00;;;;2082771;28;20232;-55
2022/07/22 00:14:19;;;;;;;4.20;3.90;;;;;25.20;100979.00;;;;2080343;28;20205;-56
2022/07/22 00:15:20;;;;;;;4.30;4.00;;;;;25.20;100976.00;;;;2080386;28;20208;-55
2022/07/22 00:16:20;;;;;;;4.73;4.33;;;;;25.20;100976.00;;;;2080483;28;20266;-55
2022/07/22 00:17:20;;;;;;;5.30;4.00;;;;;25.20;100978.00;;;;2078558;28;20267;-55
2022/07/22 00:18:21;;;;;;;4.20;3.90;;;;;25.20;100977.00;;;;2078888;28;20204;-55
2022/07/22 00:19:21;;;;;;;4.70;3.60;;;;;25.20;100975.00;;;;2080215;28;20221;-55
2022/07/22 00:20:22;;;;;;;4.13;3.77;;;;;25.20;100968.00;;;;2080429;28;20201;-55
2022/07/22 00:21:22;;;;;;;4.00;3.70;;;;;25.20;100970.00;;;;2080130;28;20216;-55
2022/07/22 00:22:22;;;;;;;4.20;3.63;;;;;25.20;100975.00;;;;2080514;28;20248;-55
2022/07/22 00:23:23;;;;;;;4.93;3.60;;;;;25.20;100979.00;;;;2080074;28;20259;-55
2022/07/22 00:24:23;;;;;;;5.13;3.30;;;;;25.20;100977.00;;;;2079884;28;20221;-56
2022/07/22 00:25:23;;;;;;;3.93;3.63;;;;;25.20;100976.00;;;;2079830;28;20218;-56
2022/07/22 00:26:24;;;;;;;3.73;3.30;;;;;25.20;100972.00;;;;2082511;28;20225;-55
2022/07/22 00:27:24;;;;;;;3.73;3.37;;;;;25.20;100982.00;;;;2086798;28;20290;-55
2022/07/22 00:28:24;;;;;;;4.00;3.43;;;;;25.20;100977.00;;;;2088216;28;20224;-55
2022/07/22 00:29:25;;;;;;;3.20;3.00;;;;;25.20;100987.00;;;;2088224;28;20224;-55
2022/07/22 00:30:25;;;;;;;3.73;3.17;;;;;25.30;100980.00;;;;2087618;28;20213;-56
2022/07/22 00:31:25;;;;;;;4.40;3.40;;;;;25.20;100978.00;;;;2078945;28;20298;-56
2022/07/22 00:32:26;;;;;;;3.67;3.20;;;;;25.20;100974.00;;;;2079903;28;20240;-56
2022/07/22 00:33:26;;;;;;;3.57;3.27;;;;;25.20;100972.00;;;;2080558;28;20213;-56
2022/07/22 00:34:26;;;;;;;4.00;3.00;;;;;25.20;100978.00;;;;2085254;28;20283;-55
2022/07/22 00:35:27;;;;;;;3.30;3.00;;;;;25.20;100970.00;;;;2081979;28;20233;-55
2022/07/22 00:36:28;;;;;;;4.27;2.80;;;;;25.20;100999.00;;;;2084081;28;20225;-56
2022/07/22 00:37:28;;;;;;;3.83;2.80;;;;;25.20;100978.00;;;;2078577;28;20221;-55
2022/07/22 00:38:29;;;;;;;3.20;2.97;;;;;25.20;100976.00;;;;2079373;28;20233;-55
2022/07/22 00:39:29;;;;;;;3.53;3.23;;;;;25.20;100965.00;;;;2079845;28;20221;-56
2022/07/22 00:40:30;;;;;;;3.10;2.80;;;;;25.20;100967.00;;;;2087094;28;20234;-56
2022/07/22 00:41:30;;;;;;;3.87;3.00;;;;;25.20;100977.00;;;;2087636;28;20220;-56
2022/07/22 00:42:30;;;;;;;3.17;2.67;;;;;25.20;100975.00;;;;2087717;28;20242;-56
2022/07/22 00:43:50;;;;;;;3.80;2.97;;;;;25.20;100977.00;;;;2085606;28;21228;-56
2022/07/22 00:44:50;;;;;;;3.25;2.80;;;;;25.20;100978.00;;;;2079623;28;20913;-56
2022/07/22 00:45:51;;;;;;;3.67;2.80;;;;;25.20;100967.00;;;;2079991;28;20210;-56
2022/07/22 00:46:51;;;;;;;2.90;2.70;;;;;25.20;100979.00;;;;2079746;28;20641;-55
2022/07/22 00:47:51;;;;;;;2.53;2.33;;;;;25.20;100962.00;;;;2078800;28;20218;-55
2022/07/22 00:48:53;;;;;;;3.47;2.73;;;;;25.20;100972.00;;;;2079260;28;20217;-56
2022/07/22 00:49:53;;;;;;;2.90;2.60;;;;;25.20;100970.00;;;;2085317;28;20224;-56
2022/07/22 00:50:54;;;;;;;3.10;2.57;;;;;25.20;100972.00;;;;2087308;28;20221;-56
2022/07/22 00:51:54;;;;;;;3.00;2.70;;;;;25.20;100943.00;;;;2079719;28;20214;-56
2022/07/22 00:52:54;;;;;;;2.40;2.20;;;;;25.20;100972.00;;;;2078751;28;20313;-55
2022/07/22 00:53:56;;;;;;;3.07;2.47;;;;;25.20;100969.00;;;;2085316;28;20286;-56
2022/07/22 00:54:58;;;;;;;3.15;2.55;;;;;25.20;100976.00;;;;2087123;28;20219;-56
2022/07/22 00:55:58;;;;;;;2.45;2.17;;;;;25.20;100967.00;;;;2086909;28;20665;-55
2022/07/22 00:56:59;;;;;;;4.00;2.53;;;;;25.20;100966.00;;;;2086895;28;20259;-56
2022/07/22 00:57:59;;;;;;;2.63;2.40;;;;;25.20;100993.00;;;;2086284;28;20212;-56
2022/07/22 00:59:01;;;;;;;3.50;2.57;;;;;25.20;100964.00;;;;2083438;28;20217;-54
2022/07/22 01:00:03;;;;;;;5.65;2.35;;;;;25.20;100971.00;;;;2079574;28;20210;-56
2022/07/22 01:01:03;;;;;;;2.70;2.50;;;;;25.20;100972.00;;;;2078867;28;20228;-56
2022/07/22 01:02:04;;;;;;;2.57;2.37;;;;;25.20;100965.00;;;;2078869;28;20272;-55
2022/07/22 01:03:04;;;;;;;3.73;2.50;;;;;25.20;100975.00;;;;2079456;28;20214;-55
2022/07/22 01:04:04;;;;;;;3.10;2.33;;;;;25.20;100973.00;;;;2079785;28;20970;-55
2022/07/22 01:05:05;;;;;;;4.30;2.67;;;;;25.20;100956.00;;;;2078776;28;20213;-54
2022/07/22 01:06:06;;;;;;;3.00;2.33;;;;;25.20;100963.00;;;;2078947;28;20228;-55
2022/07/22 01:07:06;;;;;;;3.10;2.17;;;;;25.20;100971.00;;;;2079679;28;20271;-56
2022/07/22 01:08:06;;;;;;;3.30;2.63;;;;;25.20;100926.00;;;;2078821;28;20221;-56
2022/07/22 01:09:07;;;;;;;2.73;2.30;;;;;25.20;100966.00;;;;2080616;28;20248;-56
2022/07/22 01:10:07;;;;;;;2.77;2.27;;;;;25.20;100970.00;;;;2086767;28;20247;-55
2022/07/22 01:11:09;;;;;;;3.67;2.20;;;;;25.20;100964.00;;;;2087378;28;20217;-56
2022/07/22 01:12:09;;;;;;;2.95;2.60;;;;;25.20;100967.00;;;;2087372;28;20677;-56
2022/07/22 01:13:10;;;;;;;2.25;1.90;;;;;25.20;100971.00;;;;2086745;28;20232;-55
2022/07/22 01:14:11;;;;;;;4.27;2.10;;;;;25.20;100977.00;;;;2086173;28;20205;-55
2022/07/22 01:15:11;;;;;;;3.73;2.47;;;;;25.20;100969.00;;;;2086996;28;20278;-55
2022/07/22 01:16:12;;;;;;;3.50;2.17;;;;;25.20;100970.00;;;;2087534;28;20209;-58
2022/07/22 01:17:12;;;;;;;3.07;2.23;;;;;25.20;100967.00;;;;2086789;28;20213;-56
2022/07/22 01:18:13;;;;;;;3.57;1.93;;;;;25.20;100966.00;;;;2086019;28;20894;-56
2022/07/22 01:19:13;;;;;;;2.80;2.30;;;;;25.20;100974.00;;;;2079999;28;20633;-56
2022/07/22 01:20:13;;;;;;;3.20;2.10;;;;;25.20;100966.00;;;;2078484;28;20209;-56
2022/07/22 01:21:14;;;;;;;2.77;2.23;;;;;25.20;100973.00;;;;2078124;28;20214;-55
2022/07/22 01:22:14;;;;;;;2.90;2.00;;;;;25.20;100971.00;;;;2078822;28;20226;-55
2022/07/22 01:23:15;;;;;;;3.30;2.23;;;;;25.20;100976.00;;;;2078967;28;20205;-56
2022/07/22 01:24:15;;;;;;;2.30;2.10;;;;;25.20;100972.00;;;;2082613;28;20217;-55
2022/07/22 01:25:15;;;;;;;3.73;2.60;;;;;25.20;100972.00;;;;2087015;28;20224;-56
2022/07/22 01:26:17;;;;;;;2.77;1.97;;;;;25.20;100963.00;;;;2087323;28;20841;-55
2022/07/22 01:27:17;;;;;;;2.17;1.98;;;;;25.20;100975.00;;;;2078892;28;20310;-55
2022/07/22 01:28:17;;;;;;;2.80;2.27;;;;;25.20;100965.00;;;;2078186;28;20209;-55
2022/07/22 01:29:18;;;;;;;2.23;2.00;;;;;25.20;100973.00;;;;2079301;28;20217;-55
2022/07/22 01:30:18;;;;;;;4.27;2.33;;;;;25.20;100975.00;;;;2078686;28;20208;-55
2022/07/22 01:31:18;;;;;;;3.80;1.93;;;;;25.20;100974.00;;;;2078493;28;20216;-55
2022/07/22 01:32:19;;;;;;;4.20;2.00;;;;;25.20;100971.00;;;;2078639;28;20305;-55
2022/07/22 01:33:19;;;;;;;2.20;2.00;;;;;25.20;100968.00;;;;2079261;28;20210;-55
2022/07/22 01:34:20;;;;;;;1.90;1.77;;;;;25.20;100974.00;;;;2080372;28;20213;-55
2022/07/22 01:35:20;;;;;;;2.10;1.90;;;;;25.10;100954.00;;;;2078832;28;20213;-55
2022/07/22 01:36:20;;;;;;;4.00;1.83;;;;;25.20;100971.00;;;;2087032;28;20894;-55
2022/07/22 01:37:21;;;;;;;3.80;2.00;;;;;25.20;100969.00;;;;2085746;28;20205;-55
2022/07/22 01:38:22;;;;;;;1.90;1.63;;;;;25.20;100968.00;;;;2070468;28;20297;-55
2022/07/22 01:39:22;;;;;;;2.13;1.90;;;;;25.20;100972.00;;;;2070605;28;20218;-55
2022/07/22 01:40:22;;;;;;;2.93;1.90;;;;;25.20;100974.00;;;;2079439;28;20234;-55
2022/07/22 01:41:23;;;;;;;1.80;1.57;;;;;25.10;100962.00;;;;2078520;28;20205;-56
2022/07/22 01:42:23;;;;;;;2.07;1.87;;;;;25.10;100970.00;;;;2078880;28;20213;-56
2022/07/22 01:43:23;;;;;;;2.60;1.67;;;;;25.10;100971.00;;;;2079430;28;20208;-55
2022/07/22 01:44:24;;;;;;;2.23;1.50;;;;;25.10;100968.00;;;;2079406;28;20225;-55
2022/07/22 01:45:24;;;;;;;2.67;1.50;;;;;25.10;100952.00;;;;2079247;28;20621;-55
2022/07/22 01:46:25;;;;;;;2.00;1.60;;;;;25.10;100959.00;;;;2079471;28;20226;-55
2022/07/22 01:47:25;;;;;;;3.30;1.50;;;;;25.10;100961.00;;;;2077989;28;20222;-55
2022/07/22 01:48:25;;;;;;;4.73;1.47;;;;;25.20;100968.00;;;;2078347;28;20208;-55
2022/07/22 01:49:26;;;;;;;1.70;1.57;;;;;25.10;100961.00;;;;2079266;28;20209;-55
2022/07/22 01:50:26;;;;;;;4.20;1.50;;;;;25.10;100965.00;;;;2079489;28;20205;-55
2022/07/22 01:51:26;;;;;;;3.13;1.60;;;;;25.10;100962.00;;;;2079280;28;20208;-55
2022/07/22 01:52:27;;;;;;;2.67;1.47;;;;;25.10;100965.00;;;;2079215;28;20206;-55
2022/07/22 01:53:27;;;;;;;1.70;1.10;;;;;25.10;100964.00;;;;2078505;28;20209;-55
2022/07/22 01:54:27;;;;;;;1.50;1.30;;;;;25.10;100957.00;;;;2079208;28;20213;-55
2022/07/22 01:55:28;;;;;;;2.70;1.40;;;;;25.10;100961.00;;;;2077406;28;20301;-55
2022/07/22 01:56:28;;;;;;;2.17;1.30;;;;;25.10;100964.00;;;;2078689;28;20197;-55
2022/07/22 01:57:28;;;;;;;1.60;1.40;;;;;25.10;100974.00;;;;2077727;28;20217;-55
2022/07/22 01:58:29;;;;;;;2.33;1.27;;;;;25.10;100972.00;;;;2074907;28;20273;-55
2022/07/22 01:59:29;;;;;;;2.43;1.50;;;;;25.10;100968.00;;;;2079229;28;20233;-56
2022/07/22 02:00:30;;;;;;;2.73;1.30;;;;;25.10;100971.00;;;;2078588;28;20280;-55
2022/07/22 02:01:31;;;;;;;2.60;1.45;;;;;25.10;100965.00;;;;2078326;28;20237;-55
2022/07/22 02:02:31;;;;;;;1.37;1.10;;;;;25.10;100984.00;;;;2079006;28;20209;-56
2022/07/22 02:03:32;;;;;;;3.20;1.43;;;;;25.10;100963.00;;;;2079054;28;20682;-55
2022/07/22 02:04:33;;;;;;;2.80;1.48;;;;;25.10;100969.00;;;;2079093;28;20288;-56
2022/07/22 02:05:33;;;;;;;3.43;1.60;;;;;25.10;100964.00;;;;2077263;28;20214;-56
2022/07/22 02:06:34;;;;;;;2.40;1.43;;;;;25.10;100973.00;;;;2078853;28;20214;-55
2022/07/22 02:07:34;;;;;;;1.23;1.13;;;;;25.10;100962.00;;;;2078175;28;20308;-55
2022/07/22 02:08:34;;;;;;;2.00;1.10;;;;;25.10;100973.00;;;;2079246;28;20214;-55
2022/07/22 02:09:35;;;;;;;1.47;1.07;;;;;25.10;100965.00;;;;2079008;28;20288;-55
2022/07/22 02:10:35;;;;;;;3.07;1.30;;;;;25.10;100966.00;;;;2078963;28;20229;-56
2022/07/22 02:11:35;;;;;;;4.07;1.60;;;;;25.10;100970.00;;;;2078998;28;20210;-55
2022/07/22 02:12:36;;;;;;;2.70;1.43;;;;;25.10;100969.00;;;;2078347;28;20263;-55
2022/07/22 02:13:36;;;;;;;1.43;1.33;;;;;25.10;100974.00;;;;2078475;28;20202;-55
2022/07/22 02:14:36;;;;;;;1.37;1.17;;;;;25.10;100972.00;;;;2078886;28;20305;-55
2022/07/22 02:15:37;;;;;;;1.73;1.17;;;;;25.10;100975.00;;;;2078831;28;20225;-55
2022/07/22 02:16:37;;;;;;;1.63;1.30;;;;;25.10;100964.00;;;;2079143;28;20210;-55
2022/07/22 02:17:37;;;;;;;1.40;1.20;;;;;25.10;100991.00;;;;2078123;28;20690;-55
2022/07/22 02:18:38;;;;;;;1.67;1.50;;;;;25.10;100994.00;;;;2078902;28;20726;-55
2022/07/22 02:19:38;;;;;;;1.83;1.30;;;;;25.10;100964.00;;;;2083787;28;20697;-56
2022/07/22 02:20:39;;;;;;;2.60;1.53;;;;;25.10;100969.00;;;;2087196;28;20686;-54
2022/07/22 02:21:39;;;;;;;1.40;1.30;;;;;25.10;100961.00;;;;2087135;28;20213;-54
2022/07/22 02:22:39;;;;;;;3.20;1.10;;;;;25.10;100970.00;;;;2087345;28;20216;-55
2022/07/22 02:23:40;;;;;;;1.80;1.30;;;;;25.10;100965.00;;;;2086247;28;20226;-55
2022/07/22 02:24:40;;;;;;;1.80;1.07;;;;;25.10;100962.00;;;;2086377;28;20220;-56
2022/07/22 02:25:41;;;;;;;1.30;1.20;;;;;25.10;100966.00;;;;2086425;28;20252;-55
2022/07/22 02:26:41;;;;;;;1.77;1.30;;;;;25.10;100968.00;;;;2085718;28;20233;-55
2022/07/22 02:27:42;;;;;;;1.50;1.20;;;;;25.10;100964.00;;;;2077266;28;20237;-55
2022/07/22 02:28:42;;;;;;;1.90;1.03;;;;;25.10;100971.00;;;;2086581;28;20667;-55
2022/07/22 02:29:42;;;;;;;1.43;1.10;;;;;25.10;100962.00;;;;2086581;28;20216;-55
2022/07/22 02:30:43;;;;;;;2.53;1.27;;;;;25.10;100956.00;;;;2087064;28;20304;-56
2022/07/22 02:31:43;;;;;;;1.80;1.40;;;;;25.10;100958.00;;;;2085711;28;20212;-55
2022/07/22 02:32:43;;;;;;;2.13;1.37;;;;;25.10;100960.00;;;;2086697;28;20226;-56
2022/07/22 02:33:44;;;;;;;1.93;1.30;;;;;25.10;100966.00;;;;2086949;28;20219;-55
2022/07/22 02:34:44;;;;;;;1.53;1.43;;;;;25.10;100987.00;;;;2087002;28;20209;-55
2022/07/22 02:35:45;;;;;;;1.33;1.00;;;;;25.10;100964.00;;;;2086950;28;20288;-55
2022/07/22 02:36:45;;;;;;;1.10;1.00;;;;;25.10;100960.00;;;;2078787;28;20210;-56
2022/07/22 02:37:45;;;;;;;2.93;1.00;;;;;25.10;100955.00;;;;2078004;28;20217;-55
2022/07/22 02:38:46;;;;;;;1.30;1.10;;;;;25.10;100949.00;;;;2078941;28;20318;-55
2022/07/22 02:39:46;;;;;;;1.77;1.10;;;;;25.10;100953.00;;;;2078994;28;20259;-55
2022/07/22 02:40:46;;;;;;;1.87;1.20;;;;;25.10;100963.00;;;;2078920;28;20216;-55
2022/07/22 02:41:47;;;;;;;1.13;0.90;;;;;25.10;100952.00;;;;2078532;28;20221;-55
2022/07/22 02:42:47;;;;;;;1.50;1.20;;;;;25.10;100957.00;;;;2078672;28;20221;-56
2022/07/22 02:43:47;;;;;;;2.07;1.10;;;;;25.10;100954.00;;;;2078884;28;20209;-55
2022/07/22 02:44:48;;;;;;;1.70;1.23;;;;;25.10;100957.00;;;;2078713;28;20210;-55
2022/07/22 02:45:48;;;;;;;1.27;1.00;;;;;25.10;100953.00;;;;2078794;28;20674;-55
2022/07/22 02:46:49;;;;;;;1.30;1.00;;;;;25.10;100955.00;;;;2078766;28;20816;-55
2022/07/22 02:47:51;;;;;;;3.53;1.30;;;;;25.10;100958.00;;;;2077021;28;20837;-57
2022/07/22 02:48:51;;;;;;;1.98;1.10;;;;;25.10;100948.00;;;;2077189;28;20236;-56
2022/07/22 02:49:51;;;;;;;1.40;1.10;;;;;25.10;100956.00;;;;2077424;28;20218;-56
2022/07/22 02:50:52;;;;;;;1.80;1.20;;;;;25.10;100957.00;;;;2069002;28;20313;-55
2022/07/22 02:51:52;;;;;;;1.70;0.97;;;;;25.10;100949.00;;;;2076323;28;20222;-57
2022/07/22 02:52:52;;;;;;;2.20;1.47;;;;;25.10;100948.00;;;;2084537;28;20681;-56
2022/07/22 02:53:53;;;;;;;1.47;1.07;;;;;25.10;100953.00;;;;2085808;28;20602;-56
2022/07/22 02:54:53;;;;;;;1.87;1.20;;;;;25.10;100951.00;;;;2086673;28;20216;-53
2022/07/22 02:55:53;;;;;;;1.50;1.10;;;;;25.10;100952.00;;;;2084825;28;20767;-56
2022/07/22 02:56:54;;;;;;;1.97;1.67;;;;;25.10;100961.00;;;;2086549;28;20221;-54
2022/07/22 02:57:54;;;;;;;1.33;1.23;;;;;25.10;100960.00;;;;2085480;28;20217;-55
2022/07/22 02:58:54;;;;;;;2.73;1.27;;;;;25.10;100953.00;;;;2086788;28;20223;-55
2022/07/22 02:59:55;;;;;;;2.17;1.47;;;;;25.10;100955.00;;;;2086587;28;20301;-55
2022/07/22 03:00:55;;;;;;;2.00;1.70;;;;;25.10;100955.00;;;;2086370;28;20677;-56
2022/07/22 03:01:55;;;;;;;1.87;1.77;;;;;25.10;100957.00;;;;2085745;28;20216;-56
2022/07/22 03:02:56;;;;;;;1.63;1.53;;;;;25.10;100969.00;;;;2086039;28;20227;-55
2022/07/22 03:03:56;;;;;;;3.20;1.40;;;;;25.10;100956.00;;;;2086855;28;20774;-55
2022/07/22 03:04:57;;;;;;;2.30;1.30;;;;;25.10;100962.00;;;;2086623;28;20697;-55
2022/07/22 03:05:57;;;;;;;4.40;1.60;;;;;25.10;100954.00;;;;2086047;28;20721;-55
2022/07/22 03:06:57;;;;;;;2.07;1.33;;;;;25.10;100962.00;;;;2086647;28;20697;-56
2022/07/22 03:07:58;;;;;;;1.73;1.60;;;;;25.10;100957.00;;;;2083160;28;20810;-61
2022/07/22 03:08:58;;;;;;;1.73;1.57;;;;;25.10;100968.00;;;;2081745;28;20634;-59
2022/07/22 03:09:58;;;;;;;2.40;1.50;;;;;25.10;100958.00;;;;2086755;28;20213;-57
2022/07/22 03:10:59;;;;;;;1.43;1.33;;;;;25.10;100967.00;;;;2086105;28;20294;-54
2022/07/22 03:11:59;;;;;;;3.13;1.87;;;;;25.10;100964.00;;;;2085983;28;20213;-56
2022/07/22 03:12:59;;;;;;;1.70;1.50;;;;;25.10;100966.00;;;;2086953;28;20236;-55
2022/07/22 03:14:01;;;;;;;2.37;1.60;;;;;25.10;100925.00;;;;2086838;28;20316;-56
2022/07/22 03:15:01;;;;;;;1.90;1.55;;;;;25.10;100962.00;;;;2085547;28;20224;-55
2022/07/22 03:16:02;;;;;;;2.03;1.73;;;;;25.00;100965.00;;;;2085723;28;20813;-56
2022/07/22 03:17:02;;;;;;;2.70;1.80;;;;;25.10;100966.00;;;;2085838;28;20764;-56
2022/07/22 03:18:02;;;;;;;1.93;1.40;;;;;25.10;100969.00;;;;2085253;28;20216;-56
2022/07/22 03:19:03;;;;;;;2.20;1.60;;;;;25.10;100969.00;;;;2085258;28;20213;-53
2022/07/22 03:20:08;;;;;;;2.80;1.73;;;;;25.10;100970.00;;;;2077921;28;20268;-54
2022/07/22 03:21:08;;;;;;;2.28;1.50;;;;;25.10;100975.00;;;;2070256;28;20213;-56
2022/07/22 03:22:09;;;;;;;4.50;2.03;;;;;25.10;100958.00;;;;2077854;28;20217;-56
2022/07/22 03:23:09;;;;;;;3.00;1.73;;;;;25.10;100967.00;;;;2078829;28;20210;-54
2022/07/22 03:24:10;;;;;;;2.30;1.50;;;;;25.10;100817.00;;;;2078586;28;20305;-54
2022/07/22 03:25:10;;;;;;;2.50;1.47;;;;;25.00;100973.00;;;;2078465;28;20228;-55
2022/07/22 03:26:11;;;;;;;2.33;1.40;;;;;25.10;100970.00;;;;2078394;28;20658;-55
2022/07/22 03:27:11;;;;;;;4.30;1.73;;;;;25.10;100964.00;;;;2078718;28;20214;-54
2022/07/22 03:28:12;;;;;;;2.10;1.70;;;;;25.00;100971.00;;;;2077887;28;20214;-55
2022/07/22 03:29:12;;;;;;;1.57;1.30;;;;;25.10;100970.00;;;;2078790;28;20236;-55
2022/07/22 03:30:12;;;;;;;2.60;1.70;;;;;25.10;100966.00;;;;2078469;28;20240;-55
2022/07/22 03:31:13;;;;;;;2.43;1.70;;;;;25.00;100969.00;;;;2078649;28;20209;-56
2022/07/22 03:32:14;;;;;;;1.63;1.30;;;;;25.10;100968.00;;;;2080220;28;20210;-55
2022/07/22 03:33:14;;;;;;;3.03;1.23;;;;;25.10;100967.00;;;;2086043;28;20224;-55
2022/07/22 03:34:14;;;;;;;2.57;1.67;;;;;25.00;100974.00;;;;2085905;28;20213;-55
2022/07/22 03:35:15;;;;;;;3.00;1.40;;;;;25.10;100969.00;;;;2086691;28;20213;-55
2022/07/22 03:36:15;;;;;;;2.00;1.80;;;;;25.00;100967.00;;;;2086300;28;20212;-56
2022/07/22 03:37:15;;;;;;;2.93;1.83;;;;;25.00;100968.00;;;;2086318;28;20207;-56
2022/07/22 03:38:16;;;;;;;2.97;1.70;;;;;25.00;100974.00;;;;2086242;28;20204;-55
2022/07/22 03:39:16;;;;;;;1.80;1.50;;;;;25.10;100969.00;;;;2086519;28;20205;-54
2022/07/22 03:40:16;;;;;;;2.50;1.43;;;;;25.10;100971.00;;;;2086847;28;20208;-54
2022/07/22 03:41:17;;;;;;;2.57;1.77;;;;;25.00;100969.00;;;;2086512;28;20629;-55
2022/07/22 03:42:17;;;;;;;1.33;1.20;;;;;25.00;100965.00;;;;2086617;28;20623;-56
2022/07/22 03:43:17;;;;;;;2.73;1.60;;;;;25.00;100967.00;;;;2086553;28;20645;-56
2022/07/22 03:44:18;;;;;;;4.63;1.87;;;;;25.00;100970.00;;;;2086742;28;20209;-56
2022/07/22 03:45:18;;;;;;;2.50;1.63;;;;;25.00;100958.00;;;;2086703;28;20205;-56
2022/07/22 03:46:19;;;;;;;2.57;1.77;;;;;25.00;100969.00;;;;2086760;28;20213;-55
2022/07/22 03:47:20;;;;;;;2.20;1.37;;;;;25.00;100971.00;;;;2082635;28;20205;-53
2022/07/22 03:48:20;;;;;;;4.65;1.48;;;;;25.00;100975.00;;;;2082245;28;20215;-55
2022/07/22 03:49:20;;;;;;;2.33;1.70;;;;;25.00;100967.00;;;;2086383;28;20224;-54
2022/07/22 03:50:20;;;;;;;2.70;1.50;;;;;25.00;100970.00;;;;2078713;28;20237;-54
2022/07/22 03:51:21;;;;;;;3.67;1.70;;;;;25.00;100971.00;;;;2078720;28;20198;-55
2022/07/22 03:52:21;;;;;;;4.10;1.50;;;;;25.00;100971.00;;;;2078204;28;20232;-54
2022/07/22 03:53:21;;;;;;;3.10;2.07;;;;;25.00;100977.00;;;;2078607;28;20237;-55
2022/07/22 03:54:22;;;;;;;2.23;1.33;;;;;25.00;100971.00;;;;2078789;28;20221;-55
2022/07/22 03:55:22;;;;;;;1.63;1.30;;;;;25.00;100979.00;;;;2077871;28;20306;-56
2022/07/22 03:56:22;;;;;;;1.77;1.37;;;;;25.00;100970.00;;;;2077779;28;20206;-55
2022/07/22 03:57:23;;;;;;;3.17;1.50;;;;;25.00;100973.00;;;;2078440;28;20247;-55
2022/07/22 03:58:24;;;;;;;4.17;1.23;;;;;25.00;100978.00;;;;2085648;28;20209;-55
2022/07/22 03:59:24;;;;;;;1.48;1.23;;;;;25.00;100982.00;;;;2086179;28;20292;-56
2022/07/22 04:00:24;;;;;;;2.97;1.70;;;;;25.00;100971.00;;;;2086115;28;20873;-55
2022/07/22 04:01:25;;;;;;;1.67;1.50;;;;;25.00;100973.00;;;;2086272;28;20782;-56
2022/07/22 04:02:25;;;;;;;1.97;1.40;;;;;25.00;100972.00;;;;2086622;28;20697;-56
2022/07/22 04:03:25;;;;;;;4.50;1.70;;;;;25.00;100969.00;;;;2083880;28;20576;-54
2022/07/22 04:04:26;;;;;;;2.60;1.47;;;;;25.00;100967.00;;;;2078132;28;20580;-55
2022/07/22 04:05:26;;;;;;;2.17;1.70;;;;;25.00;100979.00;;;;2083093;28;20624;-54
2022/07/22 04:06:26;;;;;;;1.67;1.37;;;;;25.00;100982.00;;;;2086524;28;20262;-55
2022/07/22 04:07:27;;;;;;;2.20;1.53;;;;;25.00;100980.00;;;;2085822;28;20213;-56
2022/07/22 04:08:27;;;;;;;3.50;1.60;;;;;25.00;100980.00;;;;2086818;28;20684;-56
2022/07/22 04:09:27;;;;;;;2.03;1.30;;;;;25.00;100970.00;;;;2086639;28;20217;-56
2022/07/22 04:10:28;;;;;;;4.00;1.90;;;;;25.00;100972.00;;;;2086674;28;20235;-56
2022/07/22 04:11:28;;;;;;;2.43;1.20;;;;;25.00;100983.00;;;;2086753;28;20216;-55
2022/07/22 04:12:28;;;;;;;2.33;1.50;;;;;25.00;100982.00;;;;2085855;28;20217;-54
2022/07/22 04:13:29;;;;;;;3.00;1.20;;;;;25.00;100976.00;;;;2086022;28;20302;-55
2022/07/22 04:14:29;;;;;;;2.77;1.27;;;;;25.00;100988.00;;;;2086677;28;20645;-56
2022/07/22 04:15:29;;;;;;;2.43;1.30;;;;;25.00;100976.00;;;;2086019;28;20914;-56
2022/07/22 04:16:30;;;;;;;1.93;1.50;;;;;25.00;100979.00;;;;2085988;28;20434;-56
2022/07/22 04:17:30;;;;;;;2.03;1.37;;;;;25.00;100985.00;;;;2085889;28;20666;-56
2022/07/22 04:18:31;;;;;;;2.03;1.40;;;;;25.00;100983.00;;;;2086540;28;20300;-55
2022/07/22 04:19:31;;;;;;;1.87;1.40;;;;;25.00;100982.00;;;;2086176;28;20209;-55
2022/07/22 04:20:31;;;;;;;3.43;1.73;;;;;25.00;100983.00;;;;2086001;28;20209;-55
2022/07/22 04:21:32;;;;;;;2.13;1.30;;;;;25.00;100985.00;;;;2086451;28;20213;-55
2022/07/22 04:22:32;;;;;;;2.73;1.80;;;;;25.00;100985.00;;;;2086625;28;20248;-55
2022/07/22 04:23:32;;;;;;;2.80;1.37;;;;;25.00;100970.00;;;;2086588;28;20217;-55
2022/07/22 04:24:33;;;;;;;2.03;1.33;;;;;25.00;100978.00;;;;2086430;28;20222;-55
2022/07/22 04:25:33;;;;;;;3.23;1.53;;;;;25.00;100967.00;;;;2086753;28;20217;-55
2022/07/22 04:26:34;;;;;;;2.67;1.40;;;;;25.00;100973.00;;;;2086005;28;20221;-56
2022/07/22 04:27:35;;;;;;;2.53;1.40;;;;;25.00;101010.00;;;;2085046;28;20228;-55
2022/07/22 04:28:35;;;;;;;4.78;1.60;;;;;25.00;100974.00;;;;2086525;28;20564;-56
2022/07/22 04:29:36;;;;;;;1.30;1.10;;;;;25.00;100969.00;;;;2086572;28;20227;-55
2022/07/22 04:30:36;;;;;;;3.07;1.50;;;;;25.00;100967.00;;;;2086647;28;20221;-56
2022/07/22 04:31:36;;;;;;;2.03;1.20;;;;;25.00;100969.00;;;;2085992;28;20209;-56
2022/07/22 04:32:37;;;;;;;3.53;1.80;;;;;25.00;100972.00;;;;2086475;28;20221;-55
2022/07/22 04:33:37;;;;;;;2.47;1.63;;;;;25.00;100973.00;;;;2086284;28;20228;-56
2022/07/22 04:34:37;;;;;;;2.17;1.33;;;;;25.00;100929.00;;;;2086273;28;20392;-55
2022/07/22 04:35:38;;;;;;;2.70;1.50;;;;;25.00;100967.00;;;;2085902;28;20220;-56
2022/07/22 04:36:38;;;;;;;1.80;1.60;;;;;25.00;100966.00;;;;2085933;28;20217;-56
2022/07/22 04:37:38;;;;;;;2.07;1.40;;;;;25.00;100972.00;;;;2085859;28;20252;-56
2022/07/22 04:38:39;;;;;;;2.03;1.33;;;;;25.00;100961.00;;;;2086638;28;20229;-55
2022/07/22 04:39:39;;;;;;;2.87;1.63;;;;;25.00;100962.00;;;;2086433;28;20279;-55
2022/07/22 04:40:39;;;;;;;3.00;1.37;;;;;25.00;100967.00;;;;2086372;28;20227;-55
2022/07/22 04:41:40;;;;;;;2.10;1.10;;;;;25.00;100963.00;;;;2086528;28;20252;-55
2022/07/22 04:42:40;;;;;;;1.73;1.20;;;;;25.00;100967.00;;;;2086390;28;20213;-55
2022/07/22 04:43:40;;;;;;;3.20;1.60;;;;;25.00;100964.00;;;;2086539;28;20678;-55
2022/07/22 04:44:41;;;;;;;4.33;1.70;;;;;25.00;100952.00;;;;2086527;28;20752;-55
2022/07/22 04:45:41;;;;;;;4.07;1.50;;;;;25.00;100963.00;;;;2085292;28;20713;-55
2022/07/22 04:46:41;;;;;;;1.80;1.10;;;;;25.00;100976.00;;;;2086398;28;20286;-56
2022/07/22 04:47:42;;;;;;;2.47;1.40;;;;;25.00;100965.00;;;;2085819;28;20225;-56
2022/07/22 04:48:42;;;;;;;2.00;1.30;;;;;25.00;100956.00;;;;2086116;28;20213;-55
2022/07/22 04:49:42;;;;;;;2.60;1.60;;;;;25.00;100959.00;;;;2086032;28;20578;-61
2022/07/22 04:50:43;;;;;;;3.60;1.90;;;;;25.00;100938.00;;;;2087727;28;20566;-60
2022/07/22 04:51:43;;;;;;;3.10;1.33;;;;;25.00;100952.00;;;;2087524;28;20643;-56
2022/07/22 04:52:43;;;;;;;2.30;1.30;;;;;25.00;100958.00;;;;2087792;28;20224;-54
2022/07/22 04:53:44;;;;;;;1.70;1.53;;;;;25.00;100960.00;;;;2087987;28;20237;-56
2022/07/22 04:54:44;;;;;;;1.60;1.43;;;;;25.00;100959.00;;;;2087997;28;20220;-55
2022/07/22 04:55:44;;;;;;;3.03;1.60;;;;;25.00;100951.00;;;;2087859;28;20212;-54
2022/07/22 04:56:45;;;;;;;3.53;1.10;;;;;25.00;100962.00;;;;2087874;28;20321;-55
2022/07/22 04:57:45;;;;;;;4.47;1.57;;;;;25.00;100961.00;;;;2087219;28;20551;-55
2022/07/22 04:58:45;;;;;;;2.20;1.40;;;;;25.00;100956.00;;;;2088105;28;20679;-56